Time;durP1;ratioP1;P1;durP2;ratioP2;P2;SDS_P1;SDS_P2;PMS_P1;PMS_P2;Temp;Humidity;BMP_temperature;BMP_pressure;BME280_temperature;BME280_humidity;BME280_pressure;Samples;Min_cycle;Max_cycle;Signal;HPM_P1;HPM_P2
2022/06/04 00:00:37;;;;;;;10.65;6.88;;;;;;;14.23;100.00;96705.06;5013859;28;20116;-65
2022/06/04 00:03:03;;;;;;;9.07;7.25;;;;;;;14.19;100.00;96701.47;5005211;28;20041;-65
2022/06/04 00:05:32;;;;;;;9.13;6.78;;;;;;;14.20;100.00;96695.59;4997071;28;20057;-65
2022/06/04 00:07:59;;;;;;;9.65;7.15;;;;;;;14.24;100.00;96695.59;4996579;28;20048;-65
2022/06/04 00:16:05;;;;;;;9.13;6.57;;;;;;;13.96;100.00;96705.38;4998599;28;20038;-63
2022/06/04 00:18:31;;;;;;;10.90;6.88;;;;;;;13.78;100.00;96710.81;4994754;28;20050;-65
2022/06/04 00:20:57;;;;;;;8.00;6.68;;;;;;;13.71;100.00;96714.31;5000828;28;20163;-65
2022/06/04 00:23:23;;;;;;;9.13;7.10;;;;;;;13.71;100.00;96711.56;4992646;28;20071;-65
2022/06/04 00:25:51;;;;;;;11.45;6.55;;;;;;;13.78;100.00;96705.31;4996841;28;20030;-64
2022/06/04 00:28:20;;;;;;;9.40;6.75;;;;;;;13.91;100.00;96703.78;4998952;28;20077;-63
2022/06/04 00:30:46;;;;;;;8.30;6.38;;;;;;;13.87;100.00;96699.44;5002429;28;20407;-63
2022/06/04 00:33:12;;;;;;;7.07;5.82;;;;;;;13.76;100.00;96694.69;4990543;28;20042;-64
2022/06/04 00:35:38;;;;;;;10.13;6.88;;;;;;;13.62;100.00;96699.34;5003674;28;20197;-63
2022/06/04 00:38:05;;;;;;;6.95;6.03;;;;;;;13.57;100.00;96695.78;4996984;28;20045;-58
2022/06/04 00:40:49;;;;;;;7.78;5.20;;;;;;;13.65;100.00;96693.06;5000405;28;20072;-62
2022/06/04 00:43:17;;;;;;;6.95;4.90;;;;;;;13.74;100.00;96690.75;4994101;28;20050;-61
2022/06/04 00:46:04;;;;;;;7.40;5.15;;;;;;;13.53;100.00;96680.44;4997834;28;20137;-64
2022/06/04 00:48:29;;;;;;;10.63;4.82;;;;;;;13.29;100.00;96693.66;5001644;28;20041;-65
2022/06/04 00:50:55;;;;;;;6.28;5.00;;;;;;;13.37;100.00;96684.28;5001092;28;20571;-64
2022/06/04 00:53:20;;;;;;;7.10;4.90;;;;;;;13.46;100.00;96680.41;4998039;28;20375;-62
2022/06/04 00:55:52;;;;;;;6.88;5.47;;;;;;;13.52;100.00;96679.66;5003081;28;20593;-64
2022/06/04 00:58:27;;;;;;;7.90;5.72;;;;;;;13.57;100.00;96679.25;4996767;28;20037;-65
2022/06/04 01:01:05;;;;;;;6.95;5.47;;;;;;;13.64;100.00;96667.50;4999463;28;20052;-65
2022/06/04 01:03:34;;;;;;;9.85;5.13;;;;;;;13.77;100.00;96679.75;5014830;28;20068;-65
2022/06/04 01:06:25;;;;;;;7.03;4.90;;;;;;;13.62;100.00;96672.63;4982084;28;20503;-66
2022/06/04 01:09:18;;;;;;;8.73;5.53;;;;;;;13.56;100.00;96668.66;4987846;28;20054;-66
2022/06/04 01:12:11;;;;;;;8.48;4.60;;;;;;;13.45;100.00;96676.88;4981142;28;20078;-66
2022/06/04 01:14:55;;;;;;;5.32;3.63;;;;;;;13.46;100.00;96672.94;4989378;28;20133;-64
2022/06/04 01:17:50;;;;;;;6.47;4.85;;;;;;;13.61;100.00;96671.03;4996315;28;20080;-65
2022/06/04 01:20:42;;;;;;;8.43;5.15;;;;;;;13.54;100.00;96669.06;4996202;28;20045;-64
2022/06/04 01:23:31;;;;;;;8.60;4.95;;;;;;;13.51;100.00;96675.31;5006254;28;20045;-64
2022/06/04 01:26:21;;;;;;;7.45;5.18;;;;;;;13.71;100.00;96675.78;5021712;28;20049;-65
2022/06/04 01:28:52;;;;;;;9.70;4.95;;;;;;;13.75;100.00;96673.06;4980537;28;20074;-65
2022/06/04 01:31:23;;;;;;;5.03;4.40;;;;;;;13.84;100.00;96676.22;4976854;28;20058;-65
2022/06/04 01:34:02;;;;;;;10.48;4.90;;;;;;;13.82;100.00;96667.56;4983640;28;20451;-64
2022/06/04 01:36:39;;;;;;;7.28;5.47;;;;;;;13.89;100.00;96670.34;4984908;28;20141;-65
2022/06/04 01:39:13;;;;;;;7.38;4.88;;;;;;;13.89;100.00;96670.34;4999865;28;20105;-62
2022/06/04 01:41:50;;;;;;;7.72;4.78;;;;;;;13.91;100.00;96667.19;5020451;28;20107;-65
2022/06/04 01:44:21;;;;;;;6.55;4.72;;;;;;;13.94;100.00;96680.97;5015244;28;20042;-64
2022/06/04 01:46:51;;;;;;;6.68;4.82;;;;;;;13.91;100.00;96679.00;5006150;28;20061;-65
2022/06/04 01:49:18;;;;;;;;;;;;;;;13.84;100.00;96692.75;4999706;28;20160;-64
2022/06/04 01:51:47;;;;;;;12.18;4.85;;;;;;;13.79;100.00;96690.34;5001080;28;20001;-65
2022/06/04 01:54:37;;;;;;;14.73;5.90;;;;;;;13.75;100.00;96695.06;4997166;28;20041;-65
2022/06/04 01:57:24;;;;;;;5.65;4.50;;;;;;;13.76;100.00;96699.41;4997467;28;20375;-64
2022/06/04 01:59:54;;;;;;;5.43;4.72;;;;;;;13.66;100.00;96711.16;5000692;28;20121;-64
2022/06/04 02:02:31;;;;;;;8.68;5.40;;;;;;;13.61;100.00;96715.06;5002696;28;20045;-63
2022/06/04 02:05:00;;;;;;;6.40;4.95;;;;;;;13.55;100.00;96713.84;5006992;28;20439;-65
2022/06/04 02:07:40;;;;;;;7.33;5.03;;;;;;;13.56;100.00;96702.47;5000660;28;20042;-64
2022/06/04 02:10:18;;;;;;;8.45;5.47;;;;;;;13.74;100.00;96697.03;5007094;28;20132;-63
2022/06/04 02:12:45;;;;;;;6.38;4.63;;;;;;;13.44;100.00;96686.28;5019481;28;20120;-65
2022/06/04 02:15:18;;;;;;;9.52;5.20;;;;;;;12.95;100.00;96693.06;4995282;28;20042;-64
2022/06/04 02:17:49;;;;;;;6.50;4.80;;;;;;;13.00;100.00;96695.44;4999610;28;20045;-65
2022/06/04 02:20:15;;;;;;;9.65;5.28;;;;;;;13.04;100.00;96699.00;4997317;28;20478;-64
2022/06/04 02:22:41;;;;;;;9.05;5.38;;;;;;;13.06;100.00;96698.63;5006446;28;20088;-65
2022/06/04 02:25:10;;;;;;;7.07;5.18;;;;;;;13.26;100.00;96699.91;4996437;28;20078;-62
2022/06/04 02:27:37;;;;;;;6.38;5.07;;;;;;;13.33;100.00;96696.47;4994229;28;20056;-64
2022/06/04 02:30:04;;;;;;;9.02;5.15;;;;;;;13.41;100.00;96695.31;4994717;28;20088;-62
2022/06/04 02:32:43;;;;;;;11.52;4.90;;;;;;;13.50;100.00;96683.97;4999674;28;20438;-64
2022/06/04 02:35:14;;;;;;;7.88;5.00;;;;;;;13.58;100.00;96691.06;4988533;28;20565;-64
2022/06/04 02:37:53;;;;;;;7.10;4.40;;;;;;;13.58;100.00;96691.84;4998430;28;20053;-64
2022/06/04 02:40:24;;;;;;;7.45;4.80;;;;;;;13.57;100.00;96689.50;4996346;28;20038;-65
2022/06/04 02:42:59;;;;;;;8.35;6.00;;;;;;;13.55;100.00;96697.34;4999994;28;20057;-64
2022/06/04 02:45:42;;;;;;;10.30;4.97;;;;;;;13.46;100.00;96707.91;4995212;28;20054;-64
2022/06/04 02:48:22;;;;;;;5.82;4.40;;;;;;;13.55;100.00;96703.63;4994527;28;20574;-64
2022/06/04 02:50:54;;;;;;;8.27;4.40;;;;;;;13.50;100.00;96698.50;4999522;28;20046;-64
2022/06/04 02:53:21;;;;;;;5.80;4.80;;;;;;;13.44;100.00;96705.53;4991715;28;20038;-65
2022/06/04 02:55:56;;;;;;;6.70;5.13;;;;;;;13.47;100.00;96702.03;4998288;28;20499;-64
2022/06/04 02:58:23;;;;;;;8.02;4.70;;;;;;;13.50;100.00;96700.47;4995581;28;20591;-64
2022/06/04 03:00:54;;;;;;;10.52;5.30;;;;;;;13.49;100.00;96704.41;5001543;28;20041;-65
2022/06/04 03:03:20;;;;;;;10.40;5.32;;;;;;;13.57;100.00;96690.28;5012331;28;20049;-65
2022/06/04 03:05:58;;;;;;;9.52;5.15;;;;;;;13.58;100.00;96700.13;5002731;28;20411;-64
2022/06/04 03:08:27;;;;;;;8.70;4.80;;;;;;;13.63;100.00;96692.66;4995811;28;20179;-64
2022/06/04 03:10:53;;;;;;;7.97;5.40;;;;;;;13.20;100.00;96699.50;5001596;28;20038;-65
2022/06/04 03:13:18;;;;;;;8.52;5.55;;;;;;;12.97;100.00;96704.47;4995083;28;20100;-66
2022/06/04 03:15:44;;;;;;;8.52;6.05;;;;;;;12.90;100.00;96707.94;5024178;28;20052;-64
2022/06/04 03:18:10;;;;;;;8.90;6.32;;;;;;;12.88;100.00;96696.53;5022088;28;20383;-63
2022/06/04 03:20:35;;;;;;;11.30;6.28;;;;;;;12.59;100.00;96681.78;5003379;28;20038;-64
2022/06/04 03:23:01;;;;;;;12.45;7.13;;;;;;;12.46;100.00;96653.84;5012640;28;20041;-64
2022/06/04 03:25:26;;;;;;;14.05;9.02;;;;;;;12.41;100.00;96648.69;5015830;28;20041;-63
2022/06/04 03:27:52;;;;;;;15.48;8.63;;;;;;;12.46;100.00;96653.84;4995043;28;20045;-65
2022/06/04 03:30:17;;;;;;;15.27;9.98;;;;;;;12.60;100.00;96664.13;4996144;28;20125;-64
2022/06/04 03:32:43;;;;;;;14.40;9.32;;;;;;;12.86;100.00;96703.59;4983701;28;20061;-65
2022/06/04 03:35:13;;;;;;;17.30;10.35;;;;;;;12.83;100.00;96724.38;4975898;28;20128;-65
2022/06/04 03:37:38;;;;;;;14.65;9.30;;;;;;;12.88;100.00;96754.25;4978475;28;20050;-65
2022/06/04 03:40:05;;;;;;;12.95;8.82;;;;;;;12.99;100.00;96760.63;4975928;28;20129;-64
2022/06/04 03:42:30;;;;;;;12.90;8.45;;;;;;;13.36;100.00;96754.25;4981174;28;20403;-64
2022/06/04 03:44:56;;;;;;;12.65;9.48;;;;;;;13.47;100.00;96761.75;4998567;28;20084;-63
2022/06/04 03:47:21;;;;;;;16.00;10.02;;;;;;;13.51;100.00;96755.13;4993959;28;20050;-66
2022/06/04 03:49:47;;;;;;;18.58;11.52;;;;;;;13.86;100.00;96730.91;4979250;28;20054;-65
2022/06/04 03:52:14;;;;;;;19.05;11.07;;;;;;;14.10;100.00;96740.44;4972162;28;20034;-64
2022/06/04 03:54:56;;;;;;;16.55;9.95;;;;;;;14.24;100.00;96742.44;4995331;28;20050;-64
2022/06/04 03:57:49;;;;;;;13.52;8.35;;;;;;;14.32;100.00;96728.28;5005790;28;20500;-65
2022/06/04 04:00:19;;;;;;;13.18;8.07;;;;;;;14.21;100.00;96734.97;5005196;28;20042;-64
2022/06/04 04:02:52;;;;;;;;;;;;;;;14.21;100.00;96734.97;5003935;28;20042;-62
2022/06/04 04:05:20;;;;;;;9.00;6.28;;;;;;;14.42;100.00;96726.75;5007473;28;19921;-63
2022/06/04 04:07:47;;;;;;;9.67;7.27;;;;;;;14.30;100.00;96730.66;5001685;28;20049;-63
2022/06/04 04:10:13;;;;;;;13.30;7.65;;;;;;;14.07;100.00;96727.44;4997482;28;20041;-65
2022/06/04 04:12:40;;;;;;;11.35;6.57;;;;;;;14.18;100.00;96731.00;5003858;28;20128;-64
2022/06/04 04:15:06;;;;;;;11.73;7.78;;;;;;;14.52;100.00;96720.44;5000127;28;20046;-64
2022/06/04 04:17:32;;;;;;;11.23;7.10;;;;;;;14.80;100.00;96710.66;5003415;28;20390;-64
2022/06/04 04:19:58;;;;;;;9.50;6.68;;;;;;;14.92;100.00;96712.22;5002817;28;20034;-64
2022/06/04 04:22:24;;;;;;;12.80;7.10;;;;;;;14.71;100.00;96719.31;5005937;28;20484;-65
2022/06/04 04:24:49;;;;;;;12.98;7.20;;;;;;;14.80;100.00;96718.13;5011886;28;20562;-64
2022/06/04 04:27:15;;;;;;;10.00;6.95;;;;;;;14.58;100.00;96723.63;4996610;28;20128;-66
2022/06/04 04:29:41;;;;;;;9.30;6.63;;;;;;;14.61;100.00;96724.81;5003582;28;20037;-65
2022/06/04 04:32:07;;;;;;;8.95;6.50;;;;;;;14.63;100.00;96719.69;4996888;28;20046;-65
2022/06/04 04:34:33;;;;;;;9.05;7.03;;;;;;;14.64;100.00;96707.47;4998498;28;20068;-64
2022/06/04 04:36:59;;;;;;;13.75;7.53;;;;;;;14.79;100.00;96703.56;5003499;28;20550;-66
2022/06/04 04:39:24;;;;;;;12.55;6.68;;;;;;;14.57;100.00;96705.50;4998438;28;20125;-65
2022/06/04 04:41:50;;;;;;;11.60;6.95;;;;;;;14.70;100.00;96697.66;5001973;28;20044;-66
2022/06/04 04:44:15;;;;;;;10.43;6.28;;;;;;;15.06;100.00;96716.94;5004202;28;20061;-65
2022/06/04 04:46:41;;;;;;;6.90;5.53;;;;;;;15.52;100.00;96734.59;5009448;28;20045;-65
2022/06/04 04:49:06;;;;;;;8.70;4.72;;;;;;;15.95;100.00;96735.25;4996959;28;20049;-64
2022/06/04 04:51:34;;;;;;;7.85;5.20;;;;;;;16.36;100.00;96759.53;5004790;28;20054;-66
2022/06/04 04:54:00;;;;;;;7.75;5.20;;;;;;;16.39;100.00;96786.38;5003472;28;20128;-64
2022/06/04 04:56:26;;;;;;;9.18;4.90;;;;;;;16.70;100.00;96807.94;4998560;28;20556;-66
2022/06/04 04:58:51;;;;;;;6.95;5.13;;;;;;;16.82;100.00;96816.53;4992733;28;20506;-69
2022/06/04 05:01:23;;;;;;;13.00;5.32;;;;;;;16.58;100.00;96836.81;4993851;28;20128;-64
2022/06/04 05:03:49;;;;;;;9.23;5.25;;;;;;;16.40;100.00;96842.44;5004931;28;20510;-65
2022/06/04 05:06:16;;;;;;;10.75;5.80;;;;;;;16.50;100.00;96843.59;5008007;28;20090;-64
2022/06/04 05:08:42;;;;;;;12.68;6.25;;;;;;;16.50;100.00;96849.13;5002846;28;20041;-65
2022/06/04 05:11:20;;;;;;;12.02;6.63;;;;;;;16.19;100.00;96873.72;4997504;28;20791;-63
2022/06/04 05:13:49;;;;;;;12.75;6.38;;;;;;;16.20;100.00;96916.72;5002887;28;20081;-65
2022/06/04 05:16:18;;;;;;;10.03;7.47;;;;;;;16.12;100.00;96987.03;4995108;28;20086;-65
2022/06/04 05:18:44;;;;;;;16.75;10.77;;;;;;;15.72;100.00;96989.75;5004968;28;20292;-65
2022/06/04 05:21:25;;;;;;;22.77;14.57;;;;;;;15.66;100.00;96999.59;5003016;28;20033;-64
2022/06/04 05:23:53;;;;;;;26.20;15.85;;;;;;;15.66;100.00;96994.06;5016033;28;20380;-66
2022/06/04 05:26:20;;;;;;;27.08;16.10;;;;;;;15.70;100.00;96999.59;5010758;28;20042;-65
2022/06/04 05:28:45;;;;;;;27.30;18.33;;;;;;;15.72;100.00;96992.53;5002448;28;20045;-65
2022/06/04 05:31:12;;;;;;;29.80;16.50;;;;;;;15.90;100.00;96988.97;4994470;28;20546;-65
2022/06/04 05:33:37;;;;;;;24.13;16.95;;;;;;;16.01;100.00;96973.22;5002691;28;20103;-65
2022/06/04 05:36:03;;;;;;;22.92;16.13;;;;;;;15.99;100.00;96981.91;4998421;28;20050;-63
2022/06/04 05:38:34;;;;;;;18.83;13.77;;;;;;;16.07;100.00;96990.19;5001372;28;20050;-64
2022/06/04 05:41:02;;;;;;;19.85;13.50;;;;;;;16.01;100.00;96998.84;4995513;28;20041;-65
2022/06/04 05:43:28;;;;;;;18.02;12.60;;;;;;;16.11;100.00;96999.25;4989858;28;20057;-65
2022/06/04 05:46:03;;;;;;;21.85;12.48;;;;;;;16.10;100.00;97003.19;4999084;28;20117;-65
2022/06/04 05:48:29;;;;;;;14.20;10.23;;;;;;;15.94;100.00;97007.16;4997352;28;20050;-64
2022/06/04 05:50:55;;;;;;;15.40;9.70;;;;;;;15.86;100.00;96998.06;5000710;28;20045;-64
2022/06/04 05:53:22;;;;;;;13.15;8.95;;;;;;;15.80;100.00;96983.06;4996463;28;20038;-64
2022/06/04 05:55:49;;;;;;;14.80;9.35;;;;;;;15.83;100.00;96973.22;5001917;28;20049;-64
2022/06/04 05:58:14;;;;;;;15.90;9.25;;;;;;;15.82;100.00;96963.34;4997556;28;20125;-65
2022/06/04 06:00:41;;;;;;;13.05;8.30;;;;;;;15.82;100.00;96968.88;5007128;28;21018;-64
2022/06/04 06:03:07;;;;;;;12.65;8.95;;;;;;;15.84;100.00;96953.47;5002194;28;20613;-65
2022/06/04 06:05:32;;;;;;;11.23;7.50;;;;;;;15.94;100.00;96937.31;5010533;28;20054;-66
2022/06/04 06:07:58;;;;;;;13.02;8.40;;;;;;;15.89;100.00;96908.09;5009182;28;20099;-66
2022/06/04 06:10:24;;;;;;;14.90;8.75;;;;;;;15.75;100.00;96866.69;4998493;28;20050;-64
2022/06/04 06:12:49;;;;;;;13.38;9.43;;;;;;;15.45;100.00;96824.50;5002130;28;20053;-64
2022/06/04 06:15:15;;;;;;;20.73;13.85;;;;;;;15.37;100.00;96817.41;5005536;28;20120;-64
2022/06/04 06:17:41;;;;;;;27.42;15.20;;;;;;;15.33;100.00;96813.88;4999485;28;20046;-64
2022/06/04 06:20:08;;;;;;;23.00;14.70;;;;;;;15.44;100.00;96795.31;5005689;28;20050;-66
2022/06/04 06:22:35;;;;;;;20.38;13.73;;;;;;;15.26;100.00;96778.00;5024697;28;20042;-64
2022/06/04 06:25:05;;;;;;;21.50;13.75;;;;;;;15.33;100.00;96753.16;5036774;28;20049;-63
2022/06/04 06:27:30;;;;;;;;;;;;;;;15.44;100.00;96737.34;5015950;28;20041;-64
2022/06/04 06:29:55;;;;;;;11.40;7.70;;;;;;;15.58;100.00;96721.97;5019672;28;20381;-64
2022/06/04 06:32:21;;;;;;;15.40;7.68;;;;;;;15.71;100.00;96733.34;4998478;28;20585;-63
2022/06/04 06:34:47;;;;;;;12.23;5.93;;;;;;;15.82;100.00;96723.84;5001396;28;20558;-64
2022/06/04 06:37:12;;;;;;;9.20;6.85;;;;;;;16.01;100.00;96721.81;5013876;28;20491;-63
2022/06/04 06:39:38;;;;;;;9.63;5.32;;;;;;;16.31;100.00;96729.53;5019020;28;20067;-65
2022/06/04 06:42:04;;;;;;;7.93;5.13;;;;;;;16.71;100.00;96745.88;4995850;28;20426;-62
2022/06/04 06:44:35;;;;;;;10.10;5.50;;;;;;;17.31;100.00;96772.31;5001403;28;20042;-65
2022/06/04 06:47:00;;;;;;;6.40;4.32;;;;;;;19.62;100.00;96803.38;4975607;28;20042;-65
2022/06/04 06:49:29;;;;;;;5.32;3.70;;;;;;;20.75;100.00;96848.88;4995213;28;20038;-64
2022/06/04 06:52:00;;;;;;;7.38;3.20;;;;;;;20.18;100.00;96850.78;5000824;28;20046;-64
2022/06/04 06:54:29;;;;;;;6.55;3.80;;;;;;;20.70;100.00;96846.59;4991345;28;20045;-64
2022/06/04 06:56:56;;;;;;;6.13;4.20;;;;;;;20.76;100.00;96844.88;4999092;28;20046;-63
2022/06/04 06:59:23;;;;;;;7.00;3.72;;;;;;;20.45;100.00;96852.66;4995491;28;20494;-63
2022/06/04 07:01:49;;;;;;;6.88;3.80;;;;;;;20.12;100.00;96855.28;5007829;28;20157;-63
2022/06/04 07:04:16;;;;;;;9.00;3.67;;;;;;;19.53;100.00;96853.13;5012330;28;20104;-63
2022/06/04 07:06:47;;;;;;;6.32;4.32;;;;;;;18.87;100.00;96846.97;5009158;28;20053;-64
2022/06/04 07:09:16;;;;;;;7.25;4.57;;;;;;;18.87;100.00;96858.09;4996317;28;20538;-65
2022/06/04 07:11:42;;;;;;;6.38;4.78;;;;;;;18.77;100.00;96856.22;5000268;28;20057;-65
2022/06/04 07:14:08;;;;;;;8.40;4.70;;;;;;;18.79;100.00;96839.94;4996535;28;20541;-65
2022/06/04 07:16:34;;;;;;;7.05;3.80;;;;;;;19.78;100.00;96831.28;4997410;28;20046;-65
2022/06/04 07:19:00;;;;;;;7.40;3.30;;;;;;;20.99;100.00;96841.19;5000130;28;20447;-64
2022/06/04 07:21:26;;;;;;;4.80;2.88;;;;;;;21.96;100.00;96843.63;5000547;28;20046;-67
2022/06/04 07:23:53;;;;;;;6.50;2.40;;;;;;;23.58;94.48;96859.22;5020641;28;20398;-65
2022/06/04 07:26:19;;;;;;;5.28;1.90;;;;;;;23.23;86.89;96858.38;4997761;28;20458;-62
2022/06/04 07:28:45;;;;;;;2.88;1.65;;;;;;;22.47;90.71;96846.66;5006385;28;20042;-64
2022/06/04 07:31:11;;;;;;;6.55;1.73;;;;;;;21.78;95.92;96838.50;5003010;28;20335;-64
2022/06/04 07:33:37;;;;;;;4.18;1.85;;;;;;;22.68;91.34;96836.84;5007022;28;20111;-64
2022/06/04 07:36:03;;;;;;;3.72;1.55;;;;;;;23.61;86.06;96843.59;5002828;28;20459;-62
2022/06/04 07:38:28;;;;;;;4.70;1.17;;;;;;;21.88;89.32;96845.81;5004722;28;20045;-65
2022/06/04 07:40:54;;;;;;;3.20;0.93;;;;;;;22.80;89.00;96840.91;5011562;28;20399;-64
2022/06/04 07:43:20;;;;;;;2.67;0.90;;;;;;;23.81;84.39;96849.72;5007601;28;20034;-64
2022/06/04 07:45:46;;;;;;;2.85;1.00;;;;;;;24.70;79.03;96852.59;4996284;28;20057;-62
2022/06/04 07:48:12;;;;;;;6.03;1.30;;;;;;;26.47;74.71;96849.81;4995616;28;20105;-62
2022/06/04 07:50:39;;;;;;;3.95;1.05;;;;;;;25.82;70.25;96849.81;5004306;28;20037;-65
2022/06/04 07:53:04;;;;;;;2.92;0.95;;;;;;;27.22;63.01;96845.59;5000448;28;20069;-62
2022/06/04 07:55:30;;;;;;;3.65;0.93;;;;;;;28.20;58.22;96839.59;5014067;28;20057;-65
2022/06/04 07:57:56;;;;;;;5.13;1.08;;;;;;;27.09;63.90;96840.19;5012442;28;20042;-65
2022/06/04 08:00:23;;;;;;;2.38;0.90;;;;;;;27.30;61.50;96841.25;5010289;28;20488;-64
2022/06/04 08:02:50;;;;;;;4.50;0.85;;;;;;;27.67;63.56;96838.22;5001837;28;20101;-63
2022/06/04 08:05:16;;;;;;;4.60;2.00;;;;;;;28.39;58.09;96831.75;5001549;28;20040;-64
2022/06/04 08:07:42;;;;;;;4.82;2.72;;;;;;;29.03;53.59;96827.53;5004716;28;20041;-66
2022/06/04 08:10:10;;;;;;;3.65;0.90;;;;;;;27.95;55.14;96819.13;4998506;28;20038;-63
2022/06/04 08:12:40;;;;;;;3.35;1.05;;;;;;;27.65;57.85;96819.00;5003002;28;20069;-64
2022/06/04 08:15:07;;;;;;;2.40;0.90;;;;;;;27.41;58.48;96818.22;4997572;28;20034;-63
2022/06/04 08:17:32;;;;;;;7.75;1.35;;;;;;;28.16;57.15;96817.25;5000499;28;20561;-64
2022/06/04 08:19:58;;;;;;;4.28;1.20;;;;;;;27.86;55.04;96822.00;5003034;28;20046;-63
2022/06/04 08:22:23;;;;;;;11.02;1.40;;;;;;;27.64;57.31;96822.28;5000807;28;20049;-64
2022/06/04 08:24:49;;;;;;;2.22;0.65;;;;;;;27.95;56.72;96816.31;5005677;28;20100;-64
2022/06/04 08:27:16;;;;;;;1.58;0.95;;;;;;;27.20;59.28;96825.63;4994520;28;20041;-65
2022/06/04 08:29:42;;;;;;;4.03;0.98;;;;;;;26.84;58.40;96821.69;5001559;28;20034;-65
2022/06/04 08:32:08;;;;;;;4.05;1.00;;;;;;;27.05;58.58;96815.06;4996292;28;20506;-63
2022/06/04 08:34:34;;;;;;;3.10;0.98;;;;;;;26.80;58.30;96818.28;4995828;28;20037;-65
2022/06/04 08:37:00;;;;;;;2.85;1.00;;;;;;;26.86;57.84;96811.53;5003703;28;20045;-64
2022/06/04 08:39:27;;;;;;;4.50;1.20;;;;;;;26.70;61.19;96812.69;4999244;28;20046;-65
2022/06/04 08:42:01;;;;;;;3.13;0.90;;;;;;;27.15;60.32;96810.16;5004614;28;20038;-64
2022/06/04 08:44:33;;;;;;;4.00;1.23;;;;;;;27.18;55.90;96809.22;4989997;28;20129;-64
2022/06/04 08:47:14;;;;;;;3.10;1.13;;;;;;;27.36;59.41;96804.81;5001367;28;20128;-63
2022/06/04 08:49:44;;;;;;;2.65;0.85;;;;;;;27.36;59.55;96805.56;4988789;28;20041;-63
2022/06/04 08:52:20;;;;;;;7.30;3.10;;;;;;;26.95;59.46;96802.28;4998582;28;20038;-64
2022/06/04 08:57:41;;;;;;;4.00;1.10;;;;;;;28.14;54.02;96799.28;5000677;28;20380;-64
2022/06/04 09:00:22;;;;;;;2.47;0.90;;;;;;;27.65;55.27;96804.16;4998458;28;20042;-64
2022/06/04 09:02:54;;;;;;;3.65;1.02;;;;;;;26.72;54.92;96798.16;5002976;28;20034;-65
2022/06/04 09:05:34;;;;;;;2.88;0.75;;;;;;;26.87;53.40;96792.66;4997819;28;20132;-63
2022/06/04 09:08:05;;;;;;;4.57;0.80;;;;;;;27.20;53.21;96792.66;4992101;28;20034;-64
2022/06/04 09:10:39;;;;;;;4.10;1.20;;;;;;;27.29;53.45;96789.06;5031424;28;20045;-64
2022/06/04 09:13:10;;;;;;;2.83;1.00;;;;;;;27.51;52.20;96788.00;5009971;28;20049;-62
2022/06/04 09:15:41;;;;;;;1.70;0.90;;;;;;;27.67;55.09;96784.75;5001858;28;20426;-65
2022/06/04 09:18:16;;;;;;;7.32;1.10;;;;;;;28.10;56.90;96788.22;4997505;28;20105;-63
2022/06/04 09:20:45;;;;;;;3.15;1.02;;;;;;;28.69;54.37;96790.31;5002124;28;20046;-64
2022/06/04 09:23:24;;;;;;;4.13;1.20;;;;;;;28.58;53.86;96793.72;5007849;28;20569;-64
2022/06/04 09:26:04;;;;;;;2.00;1.02;;;;;;;28.40;54.42;96788.25;5017319;28;20137;-62
2022/06/04 09:28:46;;;;;;;1.75;1.00;;;;;;;28.23;53.59;96790.75;5001893;28;20057;-64
2022/06/04 09:31:34;;;;;;;2.97;0.90;;;;;;;27.93;54.06;96796.34;4991968;28;20069;-64
2022/06/04 09:34:27;;;;;;;2.10;0.85;;;;;;;28.18;49.69;96794.22;4984075;28;20035;-62
2022/06/04 09:36:53;;;;;;;2.63;0.68;;;;;;;28.19;51.21;96807.06;4991137;28;20046;-64
2022/06/04 09:39:21;;;;;;;3.67;0.93;;;;;;;28.16;54.77;96805.19;4998477;28;20132;-62
2022/06/04 09:41:52;;;;;;;2.85;0.93;;;;;;;28.39;56.43;96801.53;5019387;28;20129;-65
2022/06/04 09:44:18;;;;;;;4.75;1.17;;;;;;;29.02;51.89;96802.63;5020366;28;20046;-65
2022/06/04 09:46:48;;;;;;;4.05;0.90;;;;;;;28.81;51.26;96799.75;5005357;28;20045;-65
2022/06/04 09:49:29;;;;;;;4.35;0.73;;;;;;;28.57;51.59;96792.16;4980758;28;20491;-64
2022/06/04 09:51:55;;;;;;;2.50;0.60;;;;;;;27.64;51.75;96789.31;4983241;28;20050;-63
2022/06/04 09:54:28;;;;;;;4.32;0.60;;;;;;;28.11;49.79;96784.13;4997679;28;20034;-64
2022/06/04 09:57:02;;;;;;;3.63;0.95;;;;;;;27.65;53.62;96781.66;5000167;28;20056;-64
2022/06/04 09:59:32;;;;;;;10.30;4.25;;;;;;;28.29;49.84;96782.41;4998437;28;20046;-61
2022/06/04 10:02:13;;;;;;;;;;;;;;;28.33;51.36;96780.19;5004460;28;20052;-62
2022/06/04 10:04:47;;;;;;;2.75;0.88;;;;;;;27.92;55.10;96775.06;5004169;28;19913;-63
2022/06/04 10:07:20;;;;;;;1.55;0.88;;;;;;;27.69;53.79;96775.84;5010184;28;20045;-64
2022/06/04 10:09:58;;;;;;;2.05;1.10;;;;;;;27.59;53.74;96777.94;5010151;28;20080;-62
2022/06/04 10:15:20;;;;;;;2.63;1.15;;;;;;;27.71;54.75;96764.88;4976307;28;20304;-63
2022/06/04 10:17:56;;;;;;;6.00;1.98;;;;;;;27.63;52.43;96770.09;4968579;28;20043;-63
2022/06/04 10:20:24;;;;;;;17.95;11.43;;;;;;;27.67;53.59;96776.31;4975018;28;20050;-63
2022/06/04 10:22:51;;;;;;;2.30;1.33;;;;;;;27.98;55.32;96761.09;4991464;28;20052;-63
2022/06/04 10:25:19;;;;;;;8.40;5.28;;;;;;;27.94;55.36;96757.69;4977762;28;20069;-63
2022/06/04 10:28:23;;;;;;;4.88;1.40;;;;;;;27.92;55.15;96763.81;4996855;28;20060;-63
2022/06/04 10:31:15;;;;;;;10.27;7.30;;;;;;;28.30;51.83;96765.03;4996345;28;20525;-63
2022/06/04 10:33:55;;;;;;;6.88;4.70;;;;;;;28.25;52.06;96754.44;4999297;28;20052;-64
2022/06/04 10:36:44;;;;;;;9.57;7.18;;;;;;;28.12;52.00;96754.72;4996066;28;20049;-63
2022/06/04 10:39:35;;;;;;;2.03;0.80;;;;;;;26.38;55.97;96751.56;5001550;28;20049;-63
2022/06/04 10:42:19;;;;;;;1.55;0.70;;;;;;;25.73;60.58;96755.19;5000087;28;20391;-63
2022/06/04 10:45:00;;;;;;;2.03;1.05;;;;;;;26.06;60.72;96751.78;5000255;28;20310;-63
2022/06/04 10:47:34;;;;;;;5.93;4.28;;;;;;;27.21;57.71;96752.06;4993872;28;20202;-64
2022/06/04 10:50:27;;;;;;;4.13;1.40;;;;;;;27.67;53.09;96755.84;4988844;28;20044;-64
2022/06/04 10:53:00;;;;;;;5.15;3.28;;;;;;;27.98;52.34;96759.06;4991475;28;20045;-64
2022/06/04 10:55:38;;;;;;;8.48;4.63;;;;;;;27.67;56.29;96753.81;4984048;28;20054;-63
2022/06/04 10:58:23;;;;;;;7.05;4.53;;;;;;;26.77;57.98;96749.75;4979048;28;20070;-63
2022/06/04 11:00:56;;;;;;;5.68;2.95;;;;;;;26.46;61.70;96758.41;4981532;28;20042;-64
2022/06/04 11:03:22;;;;;;;6.47;3.28;;;;;;;26.63;60.65;96758.84;4986099;28;20863;-64
2022/06/04 11:05:56;;;;;;;3.92;2.85;;;;;;;26.42;60.62;96755.00;5005012;28;20076;-65
2022/06/04 11:08:35;;;;;;;9.68;6.60;;;;;;;26.18;62.21;96749.25;5030082;28;20044;-64
2022/06/04 11:11:25;;;;;;;7.38;3.05;;;;;;;25.92;61.53;96758.75;5024618;28;20045;-64
2022/06/04 11:13:56;;;;;;;4.70;1.30;;;;;;;25.55;63.15;96760.75;5017637;28;20442;-64
2022/06/04 11:16:27;;;;;;;4.07;1.20;;;;;;;25.66;64.54;96765.91;4990220;28;20060;-63
2022/06/04 11:18:58;;;;;;;3.15;1.77;;;;;;;25.73;63.29;96763.59;5001298;28;20053;-63
2022/06/04 11:21:40;;;;;;;5.35;1.17;;;;;;;25.56;63.42;96757.50;5000523;28;20049;-64
2022/06/04 11:24:20;;;;;;;3.35;1.73;;;;;;;25.45;61.99;96750.81;5016736;28;20045;-63
2022/06/04 11:26:48;;;;;;;4.05;1.65;;;;;;;25.72;63.21;96761.25;5019270;28;20048;-64
2022/06/04 11:29:14;;;;;;;2.53;1.00;;;;;;;25.96;58.93;96749.44;5008949;28;20045;-64
2022/06/04 11:32:14;;;;;;;5.63;1.27;;;;;;;25.84;59.50;96757.53;5009827;28;20132;-64
2022/06/04 11:34:52;;;;;;;5.25;1.73;;;;;;;25.93;59.45;96756.78;5033788;28;20046;-63
2022/06/04 11:37:29;;;;;;;5.35;1.55;;;;;;;25.54;58.46;96748.78;5023100;28;20521;-62
2022/06/04 11:40:25;;;;;;;2.78;0.90;;;;;;;25.51;61.04;96748.94;5023454;28;20037;-63
2022/06/04 11:42:59;;;;;;;4.20;1.20;;;;;;;25.90;60.40;96750.03;5006522;28;20065;-64
2022/06/04 11:45:44;;;;;;;1.75;0.85;;;;;;;26.15;58.85;96748.19;4997157;28;20645;-62
2022/06/04 11:48:27;;;;;;;3.80;1.20;;;;;;;26.06;59.44;96746.16;5002930;28;20053;-62
2022/06/04 11:50:59;;;;;;;5.20;1.35;;;;;;;26.04;59.56;96754.28;5001103;28;20438;-64
2022/06/04 11:53:45;;;;;;;3.08;1.20;;;;;;;25.75;60.23;96752.69;4990814;28;20595;-63
2022/06/04 11:56:21;;;;;;;4.20;0.90;;;;;;;26.13;60.64;96745.06;4995783;28;20050;-62